• Join FlightAware (Why Join?)
  • Login
  • US Flag 
10:22AM EDT


 

Airport Tracker/Info


-or-


 

Live Flight TrackerFlight Track Log ✈ CES5389 ✈ 20-Apr-2014 ✈ ZSSS / SHA - ZHLY / LYA

Flight Track Log - Related Links

Times and Time Zones

All times are in EDT time to prevent confusion due to time zone crossing. See the CES5389 flight status page for this flight to view local times or setup timezone preferences in your user account.

Time Position Orientation Groundspeed Altitude Reporting Facility
EDT Latitude Longitude Course Direction KTS MPH feet Rate Location/Type
07:37PM 31.2086 121.3317 356° North 161 185 400  Level FlightAware ADS-B (ZSSS / SHA)
07:37PM 31.2176 121.3301 343° North 158 182 1,200 2,820 Climbing FlightAware ADS-B (ZSSS / SHA)
07:37PM 31.2219 121.3279 331° Northwest 162 186 1,300 2,040 Climbing FlightAware ADS-B (ZSSS / SHA)
07:37PM 31.2334 121.3186 323° Northwest 174 200 2,000 1,860 Climbing FlightAware ADS-B (ZSSS / SHA)
07:38PM 31.2441 121.3087 322° Northwest 192 221 2,400 1,260 Climbing FlightAware ADS-B (ZSSS / SHA)
07:38PM 31.2552 121.2982 321° Northwest 209 241 2,700 1,380 Climbing FlightAware ADS-B (ZSSS / SHA)
07:38PM 31.2643 121.2897 322° Northwest 224 258 3,000 1,740 Climbing FlightAware ADS-B (ZSSS / SHA)
07:38PM 31.2785 121.2768 322° Northwest 246 283 3,500 2,160 Climbing FlightAware ADS-B (ZSSS / SHA)
07:38PM 31.2934 121.2628 321° Northwest 258 297 4,200 2,880 Climbing FlightAware ADS-B (ZSSS / SHA)
07:39PM 31.3061 121.2507 322° Northwest 255 293 5,000 3,360 Climbing FlightAware ADS-B (ZSSS / SHA)
07:39PM 31.3208 121.2370 322° Northwest 259 298 5,900 3,300 Climbing FlightAware ADS-B (ZSSS / SHA)
07:39PM 31.3333 121.2254 322° Northwest 262 302 6,600 3,000 Climbing FlightAware ADS-B (ZSSS / SHA)
07:39PM 31.3489 121.2110 322° Northwest 264 304 7,400 2,700 Climbing FlightAware ADS-B (ZSSS / SHA)
07:40PM 31.3614 121.1992 322° Northwest 264 304 8,000 2,520 Climbing FlightAware ADS-B (ZSSS / SHA)
07:40PM 31.3758 121.1859 322° Northwest 278 320 8,500 2,880 Climbing FlightAware ADS-B (ZSSS / SHA)
07:40PM 31.3895 121.1732 322° Northwest 274 315 9,400 2,520 Climbing FlightAware ADS-B (ZSSS / SHA)
07:41PM 31.4431 121.1233 324° Northwest 303 349 11,400 1,800 Climbing FlightAware ADS-B (ZSSS / SHA)
07:42PM 31.5065 121.0867 324° Northwest 303 349 12,300 1,200 Climbing FlightAware ADS-B (ZSSS / SHA)
07:44PM 31.5758 120.9218 296° West  Level Estimated
07:45PM 31.6165 120.8246 296° West  Level Estimated
07:46PM 31.6571 120.7274 296° West  Level Estimated
07:47PM 31.6976 120.6300 296° West  Level Estimated
07:48PM 31.7380 120.5326 296° West  Level Estimated
07:49PM 31.7784 120.4351 296° West  Level Estimated
07:50PM 31.8187 120.3375 296° West  Level Estimated
07:51PM 31.8589 120.2399 296° West  Level Estimated
07:52PM 31.8990 120.1421 296° West  Level Estimated
07:53PM 31.9391 120.0443 296° West  Level Estimated
07:54PM 31.9791 119.9463 296° West  Level Estimated
07:55PM 32.0190 119.8483 296° West  Level Estimated
07:56PM 32.0589 119.7502 296° West  Level Estimated
07:57PM 32.0986 119.6521 296° West  Level Estimated
07:58PM 32.1383 119.5538 296° West  Level Estimated
07:59PM 32.1779 119.4554 295° West  Level Estimated
08:00PM 32.2175 119.3570 295° West  Level Estimated
08:01PM 32.2570 119.2585 295° West  Level Estimated
08:02PM 32.2963 119.1599 295° West  Level Estimated
08:03PM 32.3356 119.0612 295° West  Level Estimated
08:04PM 32.3749 118.9624 295° West  Level Estimated
08:05PM 32.4140 118.8635 295° West  Level Estimated
08:06PM 32.4531 118.7646 295° West  Level Estimated
08:07PM 32.4921 118.6655 295° West  Level Estimated
08:08PM 32.5310 118.5664 295° West  Level Estimated
08:09PM 32.5699 118.4672 295° West  Level Estimated
08:10PM 32.6087 118.3679 295° West  Level Estimated
08:11PM 32.6473 118.2685 295° West  Level Estimated
08:12PM 32.6860 118.1691 295° West  Level Estimated
08:13PM 32.7245 118.0695 295° West  Level Estimated
08:14PM 32.7629 117.9699 295° West  Level Estimated
08:15PM 32.8013 117.8701 295° West  Level Estimated
08:16PM 32.8396 117.7703 295° West  Level Estimated
08:17PM 32.8778 117.6704 295° West  Level Estimated
08:18PM 32.9160 117.5704 294° West  Level Estimated
08:19PM 32.9540 117.4704 294° West  Level Estimated
08:20PM 32.9920 117.3702 294° West  Level Estimated
08:21PM 33.0299 117.2700 294° West  Level Estimated
08:22PM 33.0677 117.1696 294° West  Level Estimated
08:23PM 33.1055 117.0692 294° West  Level Estimated
08:24PM 33.1431 116.9687 294° West  Level Estimated
08:25PM 33.1807 116.8681 294° West  Level Estimated
08:26PM 33.2182 116.7675 294° West  Level Estimated
08:27PM 33.2556 116.6667 294° West  Level Estimated
08:28PM 33.2929 116.5659 294° West  Level Estimated
08:29PM 33.3302 116.4649 294° West  Level Estimated
08:30PM 33.3674 116.3639 294° West  Level Estimated
08:31PM 33.4044 116.2628 294° West  Level Estimated
08:32PM 33.4414 116.1616 294° West  Level Estimated
08:33PM 33.4784 116.0603 294° West  Level Estimated
08:34PM 33.5152 115.9590 294° West  Level Estimated
08:35PM 33.5520 115.8575 294° West  Level Estimated
08:36PM 33.5886 115.7560 293° West  Level Estimated
08:37PM 33.6252 115.6544 293° West  Level Estimated
08:38PM 33.6617 115.5527 293° West  Level Estimated
08:39PM 33.6982 115.4509 293° West  Level Estimated
08:40PM 33.7345 115.3490 293° West  Level Estimated
08:41PM 33.7708 115.2470 293° West  Level Estimated
08:42PM 33.8069 115.1450 293° West  Level Estimated
08:43PM 33.8430 115.0428 293° West  Level Estimated
08:44PM 33.8790 114.9406 293° West  Level Estimated
08:45PM 33.9150 114.8383 293° West  Level Estimated
08:46PM 33.9508 114.7359 293° West  Level Estimated
08:47PM 33.9865 114.6334 293° West  Level Estimated
08:48PM 34.0222 114.5308 293° West  Level Estimated
08:49PM 34.0578 114.4282 293° West  Level Estimated
08:50PM 34.0933 114.3254 293° West  Level Estimated
08:51PM 34.1287 114.2226 293° West  Level Estimated
08:52PM 34.1640 114.1197 293° West  Level Estimated
08:53PM 34.1993 114.0167 292° West  Level Estimated
08:54PM 34.2344 113.9136 292° West  Level Estimated
08:55PM 34.2695 113.8104 292° West  Level Estimated
08:56PM 34.3045 113.7072 292° West  Level Estimated
08:57PM 34.3394 113.6038 292° West  Level Estimated
08:58PM 34.3742 113.5004 292° West  Level Estimated
08:59PM 34.4089 113.3969 292° West  Level Estimated
09:00PM 34.4435 113.2933 292° West  Level Estimated
09:01PM 34.4781 113.1896 292° West  Level Estimated
09:02PM 34.5125 113.0858 292° West  Level Estimated
09:03PM 34.5469 112.9820 292° West  Level Estimated
09:04PM 34.5812 112.8780 292° West  Level Estimated
09:05PM 34.6154 112.7740 292° West  Level Estimated
09:06PM 34.6495 112.6699 292° West  Level Estimated
09:07PM 34.6835 112.5657 292° West  Level Estimated
09:08PM 34.7174 112.4614 292° West  Level Estimated
09:09PM 34.7411 112.3883 292° West  Level Estimated
09:10PM 34.7411 112.3883 North  Level Estimated
09:11PM 34.7411 112.3883 North  Level Estimated
09:12PM 34.7411 112.3883 North  Level Estimated
09:13PM 34.7411 112.3883 North  Level Estimated
09:14PM 34.7411 112.3883 North  Level Estimated
09:15PM 34.7411 112.3883 North  Level Estimated
09:16PM 34.7411 112.3883 North  Level Estimated
09:17PM 34.7411 112.3883 North  Level Estimated
09:18PM 34.7411 112.3883 North  Level Estimated
09:19PM 34.7411 112.3883 North  Level Estimated
09:20PM 34.7411 112.3883 North  Level Estimated
09:21PM 34.7411 112.3883 North  Level Estimated
09:22PM 34.7411 112.3883 North  Level Estimated